createdAt,value
2023-11-09T00:00:25.392Z,34.88
2023-11-09T00:01:25.625Z,34.88
2023-11-09T00:01:55.573Z,34.90
2023-11-09T00:02:25.613Z,34.91
2023-11-09T00:02:55.686Z,34.88
2023-11-09T00:03:25.724Z,34.91
2023-11-09T00:03:55.824Z,34.89
2023-11-09T00:04:25.921Z,34.93
2023-11-09T00:04:56.072Z,34.92
2023-11-09T00:05:26.113Z,34.95
2023-11-09T00:05:56.155Z,34.91
2023-11-09T00:06:26.120Z,34.92
2023-11-09T00:06:56.177Z,34.91
2023-11-09T00:07:26.209Z,34.88
2023-11-09T00:07:56.237Z,34.84
2023-11-09T00:08:26.284Z,34.89
2023-11-09T00:08:56.296Z,34.89
2023-11-09T00:09:26.336Z,34.89
2023-11-09T00:09:56.393Z,34.89
2023-11-09T00:10:26.432Z,34.92
2023-11-09T00:10:56.445Z,34.88
2023-11-09T00:11:26.472Z,34.92
2023-11-09T00:11:56.501Z,34.86
2023-11-09T00:12:26.528Z,34.89
2023-11-09T00:12:56.566Z,34.91
2023-11-09T00:13:26.612Z,34.86
2023-11-09T00:13:56.668Z,34.88
2023-11-09T00:14:26.681Z,34.88
2023-11-09T00:14:56.720Z,34.92
2023-11-09T00:15:26.749Z,34.89
2023-11-09T00:15:56.985Z,34.91
2023-11-09T00:16:26.919Z,34.88
2023-11-09T00:16:56.986Z,34.92
2023-11-09T00:17:27.017Z,34.89
2023-11-09T00:17:57.077Z,34.89
2023-11-09T00:18:27.109Z,34.92
2023-11-09T00:18:57.230Z,34.89
2023-11-09T00:19:27.289Z,34.93
2023-11-09T00:19:57.256Z,34.89
2023-11-09T00:20:27.178Z,34.92
2023-11-09T00:20:57.210Z,34.89
2023-11-09T00:21:27.241Z,34.91
2023-11-09T00:21:57.323Z,34.93
2023-11-09T00:22:27.403Z,34.89
2023-11-09T00:22:57.470Z,34.88
2023-11-09T00:23:27.517Z,34.93
2023-11-09T00:23:57.623Z,34.92
2023-11-09T00:24:27.640Z,34.89
2023-11-09T00:24:57.686Z,34.86
2023-11-09T00:25:27.745Z,34.89
2023-11-09T00:25:57.774Z,34.91
2023-11-09T00:26:27.803Z,34.89
2023-11-09T00:26:57.837Z,34.90
2023-11-09T00:27:27.867Z,34.89
2023-11-09T00:27:57.993Z,34.88
2023-11-09T00:28:27.968Z,34.93
2023-11-09T00:28:58.008Z,34.88
2023-11-09T00:29:28.039Z,34.88
2023-11-09T00:29:58.070Z,34.92
2023-11-09T00:30:28.102Z,34.91
2023-11-09T00:30:58.179Z,34.89
2023-11-09T00:31:28.225Z,34.95
2023-11-09T00:31:58.272Z,34.88
2023-11-09T00:32:28.431Z,34.89
2023-11-09T00:32:58.378Z,34.91
2023-11-09T00:33:28.394Z,34.95
2023-11-09T00:33:58.491Z,34.92
2023-11-09T00:34:28.644Z,34.92
2023-11-09T00:34:58.682Z,34.87
2023-11-09T00:35:28.641Z,34.89
2023-11-09T00:35:58.676Z,34.92
2023-11-09T00:36:28.719Z,34.91
2023-11-09T00:36:58.765Z,34.89
2023-11-09T00:37:28.801Z,34.92
2023-11-09T00:37:58.834Z,34.87
2023-11-09T00:38:28.868Z,34.90
2023-11-09T00:38:58.908Z,34.89
2023-11-09T00:39:28.957Z,34.89
2023-11-09T00:39:58.985Z,34.93
2023-11-09T00:40:29.024Z,34.90
2023-11-09T00:40:59.045Z,34.88
2023-11-09T00:41:29.083Z,34.92
2023-11-09T00:41:59.123Z,34.90
2023-11-09T00:42:29.162Z,34.93
2023-11-09T00:42:59.207Z,34.96
2023-11-09T00:43:29.269Z,34.88
2023-11-09T00:43:59.312Z,34.86
2023-11-09T00:44:29.343Z,34.90
2023-11-09T00:44:59.367Z,34.90
2023-11-09T00:45:29.398Z,34.89
2023-11-09T00:45:59.460Z,34.90
2023-11-09T00:46:29.546Z,34.93
2023-11-09T00:46:59.618Z,34.89
2023-11-09T00:47:29.654Z,34.93
2023-11-09T00:47:59.758Z,34.95
2023-11-09T00:48:29.693Z,34.90
2023-11-09T00:48:59.801Z,34.90
2023-11-09T00:49:29.760Z,34.87
2023-11-09T00:49:59.780Z,34.92
2023-11-09T00:50:29.802Z,34.90
2023-11-09T00:50:59.841Z,34.93
2023-11-09T00:51:29.863Z,34.95
2023-11-09T00:52:30.066Z,34.93
2023-11-09T00:52:59.961Z,34.93
2023-11-09T00:53:29.935Z,34.89
2023-11-09T00:54:00.066Z,34.93
2023-11-09T00:54:30.172Z,34.93
2023-11-09T00:55:00.322Z,34.96
2023-11-09T00:55:30.389Z,34.95
2023-11-09T00:56:00.277Z,34.90
2023-11-09T00:56:30.393Z,34.92
2023-11-09T00:57:00.360Z,34.92
2023-11-09T00:57:30.473Z,34.97
2023-11-09T00:58:00.508Z,34.95
2023-11-09T00:58:30.527Z,34.92
2023-11-09T00:59:00.649Z,34.90
2023-11-09T00:59:30.766Z,34.95
2023-11-09T01:00:00.774Z,34.93
2023-11-09T01:00:30.893Z,34.95
2023-11-09T01:01:00.979Z,34.93
2023-11-09T01:01:30.891Z,34.92
2023-11-09T01:02:00.923Z,34.92
2023-11-09T01:02:30.985Z,34.93
2023-11-09T01:03:01.175Z,34.93
2023-11-09T01:03:31.072Z,34.91
2023-11-09T01:04:01.314Z,34.93
2023-11-09T01:04:31.249Z,34.92
2023-11-09T01:05:01.270Z,34.92
2023-11-09T01:05:31.373Z,34.94
2023-11-09T01:06:01.404Z,34.91
2023-11-09T01:06:31.438Z,34.96
2023-11-09T01:07:01.573Z,34.93
2023-11-09T01:07:31.510Z,34.93
2023-11-09T01:08:01.557Z,34.96
2023-11-09T01:08:31.589Z,34.97
2023-11-09T01:09:01.605Z,34.92
2023-11-09T01:09:31.794Z,34.96
2023-11-09T01:10:01.842Z,34.94
2023-11-09T01:10:31.835Z,34.95
2023-11-09T01:11:01.851Z,35.02
2023-11-09T01:11:31.889Z,34.97
2023-11-09T01:12:01.912Z,34.94
2023-11-09T01:12:31.949Z,34.96
2023-11-09T01:13:02.027Z,34.96
2023-11-09T01:13:32.067Z,34.98
2023-11-09T01:14:02.112Z,34.94
2023-11-09T01:14:32.141Z,34.92
2023-11-09T01:15:02.180Z,34.96
2023-11-09T01:15:32.201Z,34.94
2023-11-09T01:16:02.268Z,34.93
2023-11-09T01:16:32.290Z,34.92
2023-11-09T01:17:02.331Z,34.90
2023-11-09T01:17:32.396Z,34.96
2023-11-09T01:18:02.434Z,34.97
2023-11-09T01:18:32.460Z,34.93
2023-11-09T01:19:02.560Z,34.92
2023-11-09T01:19:32.554Z,34.96
2023-11-09T01:20:02.684Z,34.93
2023-11-09T01:20:32.626Z,34.93
2023-11-09T01:21:02.700Z,34.89
2023-11-09T01:21:32.715Z,34.96
2023-11-09T01:22:02.812Z,34.98
2023-11-09T01:22:32.846Z,34.95
2023-11-09T01:23:02.883Z,34.94
2023-11-09T01:23:32.921Z,34.97
2023-11-09T01:24:02.957Z,34.95
2023-11-09T01:24:32.984Z,34.95
2023-11-09T01:25:03.133Z,34.94
2023-11-09T01:25:33.132Z,34.93
2023-11-09T01:26:03.169Z,34.96
2023-11-09T01:26:33.200Z,34.98
2023-11-09T01:27:03.248Z,35.00
2023-11-09T01:27:33.261Z,34.97
2023-11-09T01:28:03.321Z,34.97
2023-11-09T01:28:33.345Z,34.98
2023-11-09T01:29:03.379Z,34.96
2023-11-09T01:29:33.430Z,35.00
2023-11-09T01:30:03.498Z,34.98
2023-11-09T01:30:33.523Z,34.96
2023-11-09T01:31:03.593Z,35.01
2023-11-09T01:31:33.626Z,34.99
2023-11-09T01:32:03.651Z,35.01
2023-11-09T01:32:33.686Z,35.04
2023-11-09T01:33:03.800Z,34.97
2023-11-09T01:33:33.729Z,35.02
2023-11-09T01:34:07.797Z,34.98
2023-11-09T01:34:33.837Z,35.01
2023-11-09T01:35:03.952Z,35.02
2023-11-09T01:35:33.967Z,34.97
2023-11-09T01:36:04.000Z,35.02
2023-11-09T01:36:34.060Z,35.04
2023-11-09T01:37:04.086Z,34.98
2023-11-09T01:37:34.108Z,35.02
2023-11-09T01:38:04.136Z,35.01
2023-11-09T01:38:34.171Z,35.02
2023-11-09T01:39:04.202Z,35.04
2023-11-09T01:39:34.230Z,35.01
2023-11-09T01:40:04.289Z,35.02
2023-11-09T01:40:34.307Z,35.01
2023-11-09T01:41:04.362Z,35.04
2023-11-09T01:41:34.381Z,35.04
2023-11-09T01:42:04.425Z,35.01
2023-11-09T01:42:34.458Z,35.05
2023-11-09T01:43:04.521Z,35.00
2023-11-09T01:43:34.535Z,35.03
2023-11-09T01:44:04.563Z,35.04
2023-11-09T01:44:34.596Z,35.05
2023-11-09T01:45:04.627Z,34.99
2023-11-09T01:45:34.656Z,34.99
2023-11-09T01:46:04.732Z,35.03
2023-11-09T01:46:34.784Z,35.01
2023-11-09T01:47:04.821Z,35.01
2023-11-09T01:47:34.849Z,34.98
2023-11-09T01:48:04.931Z,34.97
2023-11-09T01:48:34.948Z,35.05
2023-11-09T01:49:05.070Z,34.99
2023-11-09T01:49:35.089Z,35.04
2023-11-09T01:50:05.015Z,35.02
2023-11-09T01:50:35.047Z,35.05
2023-11-09T01:51:05.082Z,35.02
2023-11-09T01:51:35.070Z,35.05
2023-11-09T01:52:05.245Z,35.02
2023-11-09T01:52:35.244Z,35.02
2023-11-09T01:53:05.346Z,35.02
2023-11-09T01:53:35.465Z,35.05
2023-11-09T01:54:05.455Z,35.01
2023-11-09T01:55:05.565Z,35.03
2023-11-09T01:55:35.557Z,35.06
2023-11-09T01:56:05.548Z,35.05
2023-11-09T01:56:35.569Z,35.01
2023-11-09T01:57:05.667Z,35.08
2023-11-09T01:57:35.780Z,35.06
2023-11-09T01:58:05.921Z,35.02
2023-11-09T01:58:35.928Z,35.06
2023-11-09T01:59:05.922Z,35.03
2023-11-09T01:59:36.045Z,35.05
2023-11-09T02:00:06.188Z,35.05
2023-11-09T02:00:36.201Z,35.01
2023-11-09T02:01:06.207Z,35.05
2023-11-09T02:01:36.278Z,35.06
2023-11-09T02:02:06.332Z,35.02
2023-11-09T02:02:36.338Z,35.02
2023-11-09T02:03:06.415Z,35.03
2023-11-09T02:03:36.460Z,35.02
2023-11-09T02:04:06.539Z,35.01
2023-11-09T02:04:36.682Z,35.05
2023-11-09T02:05:06.727Z,35.04
2023-11-09T02:05:36.680Z,35.05
2023-11-09T02:06:06.770Z,35.05
2023-11-09T02:06:36.788Z,35.05
2023-11-09T02:07:06.820Z,35.01
2023-11-09T02:07:36.845Z,35.05
2023-11-09T02:08:06.904Z,35.05
2023-11-09T02:08:36.921Z,35.05
2023-11-09T02:09:06.959Z,35.08
2023-11-09T02:09:36.988Z,35.02
2023-11-09T02:10:07.065Z,35.05
2023-11-09T02:10:37.149Z,35.03
2023-11-09T02:11:07.162Z,34.98
2023-11-09T02:11:37.198Z,34.98
2023-11-09T02:12:07.255Z,35.02
2023-11-09T02:12:37.293Z,35.05
2023-11-09T02:13:07.311Z,35.01
2023-11-09T02:13:37.334Z,35.03
2023-11-09T02:14:07.387Z,35.01
2023-11-09T02:14:37.426Z,35.03
2023-11-09T02:15:07.456Z,35.01
2023-11-09T02:15:37.489Z,34.99
2023-11-09T02:16:07.584Z,34.99
2023-11-09T02:16:37.767Z,35.02
2023-11-09T02:17:07.750Z,35.01
2023-11-09T02:17:37.791Z,35.03
2023-11-09T02:18:07.862Z,35.01
2023-11-09T02:18:37.934Z,35.02
2023-11-09T02:19:08.011Z,35.02
2023-11-09T02:19:38.036Z,35.08
2023-11-09T02:20:08.117Z,35.03
2023-11-09T02:20:38.157Z,34.99
2023-11-09T02:21:08.186Z,35.02
2023-11-09T02:21:38.206Z,35.01
2023-11-09T02:22:08.247Z,35.04
2023-11-09T02:22:38.276Z,35.01
2023-11-09T02:23:08.313Z,35.03
2023-11-09T02:23:38.349Z,35.02
2023-11-09T02:24:08.376Z,35.02
2023-11-09T02:24:38.410Z,35.03
2023-11-09T02:25:08.459Z,34.99
2023-11-09T02:25:38.476Z,35.02
2023-11-09T02:26:08.511Z,35.06
2023-11-09T02:26:38.536Z,35.05
2023-11-09T02:27:08.626Z,35.02
2023-11-09T02:27:38.647Z,35.03
2023-11-09T02:28:08.702Z,35.02
2023-11-09T02:28:38.723Z,35.00
2023-11-09T02:29:08.755Z,35.03
2023-11-09T02:29:38.792Z,35.03
2023-11-09T02:30:08.863Z,35.01
2023-11-09T02:30:38.886Z,35.06
2023-11-09T02:31:09.000Z,35.03
2023-11-09T02:31:39.019Z,35.03
2023-11-09T02:32:09.069Z,35.02
2023-11-09T02:32:39.124Z,35.02
2023-11-09T02:33:09.265Z,35.02
2023-11-09T02:33:39.210Z,35.03
2023-11-09T02:34:09.256Z,34.99
2023-11-09T02:34:39.333Z,35.03
2023-11-09T02:35:09.375Z,35.06
2023-11-09T02:35:39.422Z,35.01
2023-11-09T02:36:09.496Z,35.03
2023-11-09T02:36:39.542Z,35.02
2023-11-09T02:37:09.600Z,35.01
2023-11-09T02:37:39.637Z,35.06
2023-11-09T02:38:09.673Z,35.05
2023-11-09T02:38:39.698Z,35.05
2023-11-09T02:39:09.730Z,35.05
2023-11-09T02:39:39.760Z,35.05
2023-11-09T02:40:09.814Z,35.03
2023-11-09T02:40:39.903Z,34.99
2023-11-09T02:41:09.947Z,35.01
2023-11-09T02:41:39.991Z,34.99
2023-11-09T02:42:10.028Z,35.01
2023-11-09T02:42:40.082Z,35.02
2023-11-09T02:43:10.154Z,34.99
2023-11-09T02:43:40.201Z,35.01
2023-11-09T02:44:10.246Z,34.97
2023-11-09T02:44:40.285Z,34.98
2023-11-09T02:45:10.310Z,35.05
2023-11-09T02:45:40.344Z,35.02
2023-11-09T02:46:10.454Z,34.97
2023-11-09T02:46:40.502Z,35.02
2023-11-09T02:47:10.544Z,35.02
2023-11-09T02:47:40.579Z,35.02
2023-11-09T02:48:10.692Z,34.97
2023-11-09T02:48:40.668Z,34.99
2023-11-09T02:49:10.759Z,35.01
2023-11-09T02:49:40.769Z,34.95
2023-11-09T02:50:10.806Z,35.02
2023-11-09T02:50:40.822Z,35.08
2023-11-09T02:51:10.850Z,34.97
2023-11-09T02:51:40.858Z,35.03
2023-11-09T02:52:10.892Z,34.99
2023-11-09T02:52:40.892Z,35.05
2023-11-09T02:53:10.891Z,35.02
2023-11-09T02:53:40.881Z,35.03
2023-11-09T02:54:10.996Z,35.02
2023-11-09T02:54:40.991Z,34.99
2023-11-09T02:55:41.070Z,35.03
2023-11-09T02:56:11.198Z,35.03
2023-11-09T02:56:41.193Z,35.01
2023-11-09T02:57:11.198Z,35.03
2023-11-09T02:57:41.313Z,35.01
2023-11-09T02:58:11.375Z,35.05
2023-11-09T02:58:41.377Z,35.02
2023-11-09T02:59:11.485Z,35.01
2023-11-09T02:59:41.488Z,35.03
2023-11-09T03:00:11.492Z,34.99
2023-11-09T03:00:41.622Z,34.99
2023-11-09T03:01:11.655Z,34.95
2023-11-09T03:01:41.677Z,34.99
2023-11-09T03:02:11.696Z,34.99
2023-11-09T03:02:41.809Z,35.03
2023-11-09T03:03:11.815Z,35.02
2023-11-09T03:03:41.844Z,34.99
2023-11-09T03:04:11.965Z,35.03
2023-11-09T03:04:41.994Z,35.01
2023-11-09T03:05:12.064Z,35.02
2023-11-09T03:05:42.074Z,35.01
2023-11-09T03:06:12.134Z,35.02
2023-11-09T03:06:42.142Z,35.01
2023-11-09T03:07:12.202Z,35.01
2023-11-09T03:07:42.224Z,35.01
2023-11-09T03:08:12.256Z,35.03
2023-11-09T03:08:42.282Z,35.06
2023-11-09T03:09:12.335Z,35.05
2023-11-09T03:09:42.430Z,35.06
2023-11-09T03:10:12.479Z,35.00
2023-11-09T03:10:42.508Z,35.03
2023-11-09T03:11:12.544Z,35.02
2023-11-09T03:11:42.576Z,34.97
2023-11-09T03:12:12.605Z,35.03
2023-11-09T03:12:42.640Z,35.00
2023-11-09T03:13:12.675Z,35.02
2023-11-09T03:13:42.733Z,35.02
2023-11-09T03:14:12.734Z,35.02
2023-11-09T03:14:42.788Z,35.03
2023-11-09T03:15:12.811Z,35.03
2023-11-09T03:15:42.812Z,35.07
2023-11-09T03:16:12.904Z,35.02
2023-11-09T03:16:42.929Z,35.07
2023-11-09T03:17:12.954Z,34.99
2023-11-09T03:17:43.027Z,35.06
2023-11-09T03:18:13.114Z,35.03
2023-11-09T03:18:43.214Z,35.00
2023-11-09T03:19:13.249Z,35.05
2023-11-09T03:19:43.283Z,35.03
2023-11-09T03:20:13.312Z,35.01
2023-11-09T03:20:43.329Z,35.04
2023-11-09T03:21:13.364Z,35.06
2023-11-09T03:21:43.384Z,35.03
2023-11-09T03:22:13.629Z,35.09
2023-11-09T03:22:43.460Z,35.10
2023-11-09T03:23:13.492Z,35.06
2023-11-09T03:23:43.524Z,35.03
2023-11-09T03:24:13.719Z,35.07
2023-11-09T03:24:43.615Z,35.02
2023-11-09T03:25:13.726Z,35.06
2023-11-09T03:25:43.695Z,35.07
2023-11-09T03:26:13.724Z,35.10
2023-11-09T03:26:43.729Z,35.07
2023-11-09T03:27:13.762Z,35.06
2023-11-09T03:27:43.800Z,35.07
2023-11-09T03:28:13.860Z,35.03
2023-11-09T03:28:43.886Z,35.07
2023-11-09T03:29:13.954Z,35.09
2023-11-09T03:29:43.951Z,35.07
2023-11-09T03:30:14.008Z,35.04
2023-11-09T03:30:44.046Z,35.06
2023-11-09T03:31:14.080Z,35.07
2023-11-09T03:31:44.114Z,35.07
2023-11-09T03:32:14.144Z,35.08
2023-11-09T03:32:44.217Z,35.04
2023-11-09T03:33:14.262Z,35.11
2023-11-09T03:33:44.339Z,35.11
2023-11-09T03:34:14.383Z,35.06
2023-11-09T03:34:44.404Z,35.12
2023-11-09T03:35:14.440Z,35.06
2023-11-09T03:35:44.463Z,35.08
2023-11-09T03:36:14.486Z,35.07
2023-11-09T03:36:44.574Z,35.08
2023-11-09T03:37:14.631Z,35.04
2023-11-09T03:37:44.691Z,35.06
2023-11-09T03:38:14.723Z,35.10
2023-11-09T03:38:44.750Z,35.11
2023-11-09T03:39:14.788Z,35.06
2023-11-09T03:39:44.808Z,35.04
2023-11-09T03:40:14.848Z,35.08
2023-11-09T03:40:44.870Z,35.08
2023-11-09T03:41:14.898Z,35.07
2023-11-09T03:41:44.931Z,35.07
2023-11-09T03:42:15.005Z,35.07
2023-11-09T03:42:45.336Z,35.10
2023-11-09T03:43:15.143Z,35.12
2023-11-09T03:44:15.220Z,35.10
2023-11-09T03:44:45.268Z,35.12
2023-11-09T03:45:15.352Z,35.08
2023-11-09T03:45:45.411Z,35.03
2023-11-09T03:46:15.490Z,35.12
2023-11-09T03:46:45.525Z,35.08
2023-11-09T03:47:15.574Z,35.03
2023-11-09T03:47:45.644Z,35.04
2023-11-09T03:48:15.732Z,35.07
2023-11-09T03:48:45.743Z,35.08
2023-11-09T03:49:15.827Z,35.11
2023-11-09T03:49:45.847Z,35.09
2023-11-09T03:50:15.894Z,35.10
2023-11-09T03:50:45.969Z,35.12
2023-11-09T03:51:15.971Z,35.12
2023-11-09T03:52:16.069Z,35.13
2023-11-09T03:52:46.041Z,35.08
2023-11-09T03:53:16.157Z,35.10
2023-11-09T03:53:46.156Z,35.05
2023-11-09T03:54:46.235Z,35.02
2023-11-09T03:55:16.278Z,34.99
2023-11-09T03:55:46.273Z,35.01
2023-11-09T03:56:16.267Z,34.98
2023-11-09T03:56:46.393Z,34.97
2023-11-09T03:57:16.396Z,34.92
2023-11-09T03:58:16.494Z,34.93
2023-11-09T03:58:46.479Z,34.87
2023-11-09T03:59:16.481Z,34.86
2023-11-09T03:59:46.593Z,34.89
2023-11-09T04:00:16.795Z,34.88
2023-11-09T04:00:46.755Z,34.85
2023-11-09T04:01:16.799Z,34.88
2023-11-09T04:01:46.824Z,34.81
2023-11-09T04:02:16.864Z,34.85
2023-11-09T04:02:46.909Z,34.80
2023-11-09T04:03:16.944Z,34.80
2023-11-09T04:03:46.996Z,34.83
2023-11-09T04:04:17.167Z,34.78
2023-11-09T04:04:47.178Z,34.77
2023-11-09T04:05:17.264Z,34.79
2023-11-09T04:05:47.319Z,34.82
2023-11-09T04:06:17.363Z,34.77
2023-11-09T04:06:47.381Z,34.79
2023-11-09T04:07:17.428Z,34.70
2023-11-09T04:07:47.401Z,34.70
2023-11-09T04:08:17.428Z,34.73
2023-11-09T04:08:47.475Z,34.67
2023-11-09T04:09:17.506Z,34.72
2023-11-09T04:09:47.529Z,34.68
2023-11-09T04:10:17.677Z,34.67
2023-11-09T04:10:47.653Z,34.65
2023-11-09T04:11:17.678Z,34.63
2023-11-09T04:11:47.745Z,34.65
2023-11-09T04:12:17.802Z,34.63
2023-11-09T04:12:47.824Z,34.64
2023-11-09T04:13:17.870Z,34.63
2023-11-09T04:13:47.911Z,34.63
2023-11-09T04:14:17.945Z,34.60
2023-11-09T04:14:47.964Z,34.55
2023-11-09T04:15:18.008Z,34.63
2023-11-09T04:15:48.084Z,34.63
2023-11-09T04:16:18.110Z,34.54
2023-11-09T04:16:48.142Z,34.52
2023-11-09T04:17:18.164Z,34.58
2023-11-09T04:17:48.203Z,34.59
2023-11-09T04:18:18.242Z,34.51
2023-11-09T04:18:48.266Z,34.49
2023-11-09T04:19:18.317Z,34.52
2023-11-09T04:19:48.576Z,34.51
2023-11-09T04:20:18.353Z,34.48
2023-11-09T04:21:18.502Z,34.40
2023-11-09T04:21:48.543Z,34.47
2023-11-09T04:22:18.622Z,34.39
2023-11-09T04:22:48.642Z,34.45
2023-11-09T04:23:18.673Z,34.35
2023-11-09T04:23:48.707Z,34.38
2023-11-09T04:24:18.754Z,34.42
2023-11-09T04:24:48.785Z,34.38
2023-11-09T04:25:18.846Z,34.34
2023-11-09T04:25:48.869Z,34.38
2023-11-09T04:26:18.901Z,34.34
2023-11-09T04:26:48.928Z,34.39
2023-11-09T04:27:18.961Z,34.36
2023-11-09T04:27:49.009Z,34.41
2023-11-09T04:28:19.060Z,34.36
2023-11-09T04:28:49.081Z,34.36
2023-11-09T04:29:19.125Z,34.38
2023-11-09T04:29:49.166Z,34.44
2023-11-09T04:30:19.188Z,34.39
2023-11-09T04:30:49.217Z,34.36
2023-11-09T04:31:19.331Z,34.34
2023-11-09T04:31:49.251Z,34.41
2023-11-09T04:32:19.295Z,34.43
2023-11-09T04:32:49.388Z,34.36
2023-11-09T04:33:19.405Z,34.39
2023-11-09T04:33:49.508Z,34.43
2023-11-09T04:34:19.483Z,34.35
2023-11-09T04:34:49.587Z,34.37
2023-11-09T04:35:19.540Z,34.37
2023-11-09T04:35:49.870Z,34.34
2023-11-09T04:36:19.674Z,34.37
2023-11-09T04:36:49.716Z,34.40
2023-11-09T04:37:19.747Z,34.32
2023-11-09T04:37:49.770Z,34.35
2023-11-09T04:38:19.810Z,34.39
2023-11-09T04:38:49.835Z,34.35
2023-11-09T04:39:19.878Z,34.42
2023-11-09T04:39:49.930Z,34.48
2023-11-09T04:40:19.989Z,34.40
2023-11-09T04:40:50.030Z,34.42
2023-11-09T04:41:20.061Z,34.38
2023-11-09T04:41:50.088Z,34.41
2023-11-09T04:42:20.144Z,34.38
2023-11-09T04:42:50.242Z,34.37
2023-11-09T04:43:20.321Z,34.43
2023-11-09T04:43:50.343Z,34.23
2023-11-09T04:44:20.374Z,34.30
2023-11-09T04:44:50.404Z,34.27
2023-11-09T04:45:20.437Z,34.31
2023-11-09T04:45:50.492Z,34.22
2023-11-09T04:46:20.525Z,34.27
2023-11-09T04:46:50.594Z,34.38
2023-11-09T04:47:20.603Z,34.44
2023-11-09T04:47:50.713Z,34.35
2023-11-09T04:48:20.848Z,34.34
2023-11-09T04:48:50.849Z,34.21
2023-11-09T04:49:20.877Z,34.28
2023-11-09T04:49:50.963Z,33.88
2023-11-09T04:50:20.991Z,34.04
2023-11-09T04:50:51.042Z,33.97
2023-11-09T04:51:21.206Z,33.92
2023-11-09T04:51:51.201Z,33.62
2023-11-09T04:52:51.286Z,33.98
2023-11-09T04:53:21.281Z,33.78
2023-11-09T04:53:51.397Z,33.72
2023-11-09T04:54:21.518Z,33.74
2023-11-09T04:54:51.633Z,33.81
2023-11-09T04:55:21.769Z,33.90
2023-11-09T04:55:51.751Z,33.73
2023-11-09T04:56:21.866Z,33.81
2023-11-09T04:56:51.984Z,33.68
2023-11-09T04:57:22.111Z,33.96
2023-11-09T04:57:52.104Z,34.03
2023-11-09T04:58:22.266Z,34.05
2023-11-09T04:58:52.309Z,34.10
2023-11-09T04:59:22.307Z,34.17
2023-11-09T04:59:52.420Z,34.25
2023-11-09T05:00:22.546Z,34.27
2023-11-09T05:00:52.684Z,34.07
2023-11-09T05:01:22.626Z,34.21
2023-11-09T05:01:52.657Z,34.02
2023-11-09T05:02:22.712Z,33.96
2023-11-09T05:02:52.819Z,34.14
2023-11-09T05:03:22.841Z,33.87
2023-11-09T05:03:52.779Z,33.85
2023-11-09T05:04:22.828Z,33.91
2023-11-09T05:04:52.844Z,33.93
2023-11-09T05:05:22.895Z,33.93
2023-11-09T05:05:52.986Z,33.72
2023-11-09T05:06:23.035Z,33.90
2023-11-09T05:06:53.072Z,33.96
2023-11-09T05:07:23.128Z,33.90
2023-11-09T05:07:53.142Z,33.75
2023-11-09T05:08:23.174Z,33.76
2023-11-09T05:08:53.210Z,33.98
2023-11-09T05:09:23.230Z,33.92
2023-11-09T05:09:53.261Z,34.07
2023-11-09T05:10:23.319Z,34.11
2023-11-09T05:10:53.351Z,34.07
2023-11-09T05:11:23.427Z,34.10
2023-11-09T05:11:53.372Z,34.09
2023-11-09T05:12:53.515Z,33.95
2023-11-09T05:13:23.568Z,33.77
2023-11-09T05:13:53.583Z,33.80
2023-11-09T05:14:23.623Z,33.92
2023-11-09T05:14:53.640Z,33.89
2023-11-09T05:15:23.674Z,34.05
2023-11-09T05:15:53.713Z,33.91
2023-11-09T05:16:23.777Z,33.97
2023-11-09T05:16:53.855Z,33.99
2023-11-09T05:17:24.078Z,34.00
2023-11-09T05:17:53.994Z,34.00
2023-11-09T05:18:24.034Z,33.76
2023-11-09T05:18:54.069Z,33.81
2023-11-09T05:19:24.118Z,33.87
2023-11-09T05:19:54.176Z,33.90
2023-11-09T05:20:24.193Z,33.83
2023-11-09T05:20:54.222Z,33.84
2023-11-09T05:21:24.251Z,33.75
2023-11-09T05:21:55.769Z,33.66
2023-11-09T05:22:24.373Z,33.78
2023-11-09T05:22:54.391Z,33.75
2023-11-09T05:23:24.420Z,33.67
2023-11-09T05:23:54.455Z,33.79
2023-11-09T05:24:24.479Z,33.59
2023-11-09T05:24:54.541Z,33.70
2023-11-09T05:25:24.598Z,33.65
2023-11-09T05:25:54.628Z,33.57
2023-11-09T05:26:24.671Z,33.71
2023-11-09T05:26:54.716Z,33.71
2023-11-09T05:27:24.743Z,33.67
2023-11-09T05:27:54.769Z,33.53
2023-11-09T05:28:24.847Z,33.41
2023-11-09T05:28:54.871Z,33.64
2023-11-09T05:29:24.924Z,33.60
2023-11-09T05:29:54.954Z,33.51
2023-11-09T05:30:24.962Z,33.62
2023-11-09T05:30:54.988Z,33.98
2023-11-09T05:31:25.262Z,33.78
2023-11-09T05:31:55.081Z,33.93
2023-11-09T05:32:25.187Z,34.04
2023-11-09T05:32:55.240Z,34.05
2023-11-09T05:33:25.301Z,33.92
2023-11-09T05:33:55.398Z,34.12
2023-11-09T05:34:25.359Z,34.19
2023-11-09T05:34:55.389Z,34.32
2023-11-09T05:35:25.492Z,34.14
2023-11-09T05:35:55.484Z,34.37
2023-11-09T05:36:25.518Z,34.20
2023-11-09T05:36:55.548Z,34.37
2023-11-09T05:37:25.585Z,34.61
2023-11-09T05:37:55.602Z,34.62
2023-11-09T05:38:25.658Z,34.57
2023-11-09T05:38:55.693Z,34.40
2023-11-09T05:39:25.720Z,34.35
2023-11-09T05:39:55.759Z,34.48
2023-11-09T05:40:25.863Z,34.40
2023-11-09T05:40:55.896Z,34.38
2023-11-09T05:41:25.924Z,34.45
2023-11-09T05:41:55.961Z,34.32
2023-11-09T05:42:25.984Z,34.34
2023-11-09T05:42:56.031Z,34.28
2023-11-09T05:43:26.072Z,34.28
2023-11-09T05:43:56.110Z,34.29
2023-11-09T05:44:26.139Z,34.28
2023-11-09T05:44:56.173Z,34.35
2023-11-09T05:45:26.201Z,34.30
2023-11-09T05:45:56.237Z,34.28
2023-11-09T05:46:26.307Z,34.35
2023-11-09T05:46:56.327Z,34.43
2023-11-09T05:47:26.353Z,34.46
2023-11-09T05:47:56.452Z,34.45
2023-11-09T05:48:26.611Z,34.42
2023-11-09T05:48:56.591Z,34.57
2023-11-09T05:49:26.573Z,34.73
2023-11-09T05:49:56.596Z,34.70
2023-11-09T05:50:26.634Z,34.76
2023-11-09T05:50:56.656Z,34.75
2023-11-09T05:51:26.787Z,34.79
2023-11-09T05:51:56.891Z,34.93
2023-11-09T05:52:26.925Z,34.94
2023-11-09T05:52:56.920Z,34.79
2023-11-09T05:53:26.923Z,34.80
2023-11-09T05:54:27.013Z,34.89
2023-11-09T05:54:57.121Z,35.08
2023-11-09T05:55:27.133Z,35.19
2023-11-09T05:56:27.189Z,35.07
2023-11-09T05:56:57.304Z,35.05
2023-11-09T05:57:27.321Z,35.16
2023-11-09T05:57:57.331Z,35.17
2023-11-09T05:58:27.508Z,35.10
2023-11-09T05:58:57.589Z,35.17
2023-11-09T05:59:27.488Z,35.30
2023-11-09T05:59:57.608Z,35.21
2023-11-09T06:00:27.604Z,35.31
2023-11-09T06:00:57.614Z,35.23
2023-11-09T06:01:27.699Z,35.14
2023-11-09T06:01:58.984Z,35.20
2023-11-09T06:02:27.811Z,34.98
2023-11-09T06:02:57.942Z,35.13
2023-11-09T06:03:27.899Z,35.19
2023-11-09T06:03:57.966Z,35.31
2023-11-09T06:04:28.032Z,35.18
2023-11-09T06:04:58.150Z,34.90
2023-11-09T06:05:28.136Z,34.88
2023-11-09T06:05:58.182Z,34.92
2023-11-09T06:06:28.226Z,34.95
2023-11-09T06:06:58.267Z,34.92
2023-11-09T06:07:28.338Z,34.71
2023-11-09T06:07:58.361Z,34.74
2023-11-09T06:08:28.391Z,34.89
2023-11-09T06:08:58.414Z,34.89
2023-11-09T06:09:28.452Z,34.89
2023-11-09T06:09:58.507Z,34.74
2023-11-09T06:10:28.644Z,34.77
2023-11-09T06:10:58.686Z,34.57
2023-11-09T06:11:28.736Z,34.76
2023-11-09T06:11:58.765Z,34.71
2023-11-09T06:12:28.810Z,34.74
2023-11-09T06:12:58.830Z,34.58
2023-11-09T06:13:28.888Z,34.69
2023-11-09T06:13:58.913Z,34.48
2023-11-09T06:14:28.947Z,34.75
2023-11-09T06:14:58.969Z,35.04
2023-11-09T06:15:29.009Z,34.71
2023-11-09T06:15:59.049Z,34.73
2023-11-09T06:16:29.100Z,34.63
2023-11-09T06:16:59.116Z,34.64
2023-11-09T06:17:29.246Z,34.64
2023-11-09T06:17:59.252Z,34.89
2023-11-09T06:18:29.210Z,34.95
2023-11-09T06:18:59.396Z,34.89
2023-11-09T06:19:29.290Z,34.89
2023-11-09T06:19:59.296Z,34.67
2023-11-09T06:20:29.340Z,34.90
2023-11-09T06:20:59.381Z,34.65
2023-11-09T06:21:29.410Z,34.62
2023-11-09T06:21:59.439Z,34.95
2023-11-09T06:22:29.509Z,34.83
2023-11-09T06:22:59.532Z,34.91
2023-11-09T06:23:29.550Z,34.91
2023-11-09T06:23:59.602Z,34.81
2023-11-09T06:24:29.653Z,34.90
2023-11-09T06:24:59.696Z,35.08
2023-11-09T06:25:29.755Z,35.23
2023-11-09T06:25:59.817Z,35.15
2023-11-09T06:26:29.847Z,35.12
2023-11-09T06:26:59.878Z,35.01
2023-11-09T06:27:29.920Z,35.16
2023-11-09T06:27:59.946Z,35.05
2023-11-09T06:28:30.011Z,35.08
2023-11-09T06:29:00.025Z,35.05
2023-11-09T06:29:30.056Z,34.91
2023-11-09T06:30:00.168Z,34.95
2023-11-09T06:30:30.127Z,35.11
2023-11-09T06:31:00.147Z,35.21
2023-11-09T06:31:30.265Z,35.15
2023-11-09T06:32:00.214Z,35.18
2023-11-09T06:32:30.324Z,35.03
2023-11-09T06:33:00.385Z,35.17
2023-11-09T06:33:30.504Z,35.16